Time;durP1;ratioP1;P1;durP2;ratioP2;P2;SDS_P1;SDS_P2;PMS_P1;PMS_P2;Temp;Humidity;BMP_temperature;BMP_pressure;BME280_temperature;BME280_humidity;BME280_pressure;Samples;Min_cycle;Max_cycle;Signal;HPM_P1;HPM_P2
2021/04/03 00:00:27;;;;;;;;;;;;;;;17.18;63.83;100445.38;4993932;28;1490;-61
2021/04/03 00:02:53;;;;;;;;;;;;;;;17.18;62.61;100434.69;4994492;28;1538;-61
2021/04/03 00:05:19;;;;;;;;;;;;;;;17.19;63.48;100447.94;4987956;28;1599;-61
2021/04/03 00:07:44;;;;;;;;;;;;;;;17.19;62.81;100447.06;4993818;28;1431;-57
2021/04/03 00:10:12;;;;;;;;;;;;;;;17.17;63.62;100444.53;4996163;28;769;-57
2021/04/03 00:12:37;;;;;;;;;;;;;;;17.17;63.19;100449.00;4994752;28;1562;-61
2021/04/03 00:15:04;;;;;;;;;;;;;;;17.16;62.91;100431.31;4986098;28;1721;-57
2021/04/03 00:17:29;;;;;;;;;;;;;;;17.15;63.62;100427.78;4993837;28;1922;-60
2021/04/03 00:19:55;;;;;;;;;;;;;;;17.16;63.16;100415.28;4992214;28;1226;-61
2021/04/03 00:22:21;;;;;;;;;;;;;;;17.16;63.36;100428.63;4987314;28;1459;-61
2021/04/03 00:24:46;;;;;;;;;;;;;;;17.16;62.55;100420.63;4990587;28;1435;-57
2021/04/03 00:27:12;;;;;;;;;;;;;;;17.17;62.73;100417.81;4992351;28;1582;-61
2021/04/03 00:29:37;;;;;;;;;;;;;;;17.17;63.20;100427.63;4987241;28;1368;-57
2021/04/03 00:32:02;;;;;;;;;;;;;;;17.17;62.57;100412.47;5000511;28;1436;-61
2021/04/03 00:34:28;;;;;;;;;;;;;;;17.15;62.55;100416.25;4992132;28;1497;-60
2021/04/03 00:36:53;;;;;;;;;;;;;;;17.16;62.88;100432.16;4995244;28;1261;-60
2021/04/03 00:39:18;;;;;;;;;;;;;;;17.18;63.61;100424.00;4987636;28;1882;-57
2021/04/03 00:41:44;;;;;;;;;;;;;;;17.13;62.98;100411.06;4987354;28;1376;-58
2021/04/03 00:44:09;;;;;;;;;;;;;;;17.13;63.95;100448.47;4991848;28;1468;-61
2021/04/03 00:46:34;;;;;;;;;;;;;;;17.15;62.47;100446.50;4989831;28;1409;-61
2021/04/03 00:49:00;;;;;;;;;;;;;;;17.14;63.51;100446.63;4987939;28;1348;-61
2021/04/03 00:51:25;;;;;;;;;;;;;;;17.10;62.41;100444.19;4994504;28;1246;-61
2021/04/03 00:53:51;;;;;;;;;;;;;;;17.13;63.35;100442.25;4993128;28;1424;-61
2021/04/03 00:56:16;;;;;;;;;;;;;;;17.14;63.28;100447.47;4989411;28;1439;-61
2021/04/03 00:58:42;;;;;;;;;;;;;;;17.10;62.81;100438.84;4989065;28;1910;-61
2021/04/03 01:01:08;;;;;;;;;;;;;;;17.13;62.86;100445.78;4991116;28;1409;-57
2021/04/03 01:03:33;;;;;;;;;;;;;;;17.14;62.55;100443.94;4986907;28;1198;-58
2021/04/03 01:05:58;;;;;;;;;;;;;;;17.13;62.70;100431.56;4989973;28;1242;-61
2021/04/03 01:08:23;;;;;;;;;;;;;;;17.10;63.61;100420.16;4990617;28;1574;-61
2021/04/03 01:10:52;;;;;;;;;;;;;;;17.13;62.72;100426.22;4991118;28;1664;-61
2021/04/03 01:13:43;;;;;;;;;;;;;;;17.13;63.83;100421.72;4991277;28;1460;-61
2021/04/03 01:16:12;;;;;;;;;;;;;;;17.10;62.42;100419.31;4983382;28;1340;-57
2021/04/03 01:18:40;;;;;;;;;;;;;;;17.09;63.29;100426.50;4990703;28;1906;-61
2021/04/03 01:21:25;;;;;;;;;;;;;;;17.12;62.73;100419.19;4994967;28;1241;-61
2021/04/03 01:24:02;;;;;;;;;;;;;;;17.13;63.85;100419.06;4990189;28;1407;-61
2021/04/03 01:26:41;;;;;;;;;;;;;;;17.12;62.43;100420.03;4988616;28;1487;-61
2021/04/03 01:29:25;;;;;;;;;;;;;;;17.08;62.46;100419.44;4988324;28;1406;-57
2021/04/03 01:31:51;;;;;;;;;;;;;;;17.08;63.78;100423.94;4982719;28;1360;-57
2021/04/03 01:34:22;;;;;;;;;;;;;;;17.09;63.25;100431.84;4983840;28;1436;-60
2021/04/03 01:36:48;;;;;;;;;;;;;;;17.07;63.89;100417.75;4990692;28;1175;-61
2021/04/03 01:39:16;;;;;;;;;;;;;;;17.10;62.60;100425.50;4986415;28;1878;-58
2021/04/03 01:41:44;;;;;;;;;;;;;;;17.11;63.50;100413.00;4991148;28;1357;-57
2021/04/03 01:44:11;;;;;;;;;;;;;;;17.09;63.72;100423.81;4994253;28;1468;-57
2021/04/03 01:46:37;;;;;;;;;;;;;;;17.10;63.33;100422.81;4993929;28;1468;-58
2021/04/03 01:49:09;;;;;;;;;;;;;;;17.10;62.74;100412.13;5008133;28;1749;-61
2021/04/03 01:51:34;;;;;;;;;;;;;;;17.07;63.62;100407.06;4993567;28;1363;-58
2021/04/03 01:54:00;;;;;;;;;;;;;;;17.08;62.41;100408.75;4987249;28;1380;-57
2021/04/03 01:56:26;;;;;;;;;;;;;;;17.07;63.46;100411.56;4988376;28;1482;-61
2021/04/03 01:58:52;;;;;;;;;;;;;;;17.10;63.06;100427.31;4990737;28;1882;-58
2021/04/03 02:01:18;;;;;;;;;;;;;;;17.07;63.27;100435.63;5011771;23;1986;-46
2021/04/03 02:03:47;;;;;;;;;;;;;;;17.05;63.46;100419.72;5000309;28;1722;-45
2021/04/03 02:06:14;;;;;;;;;;;;;;;17.08;63.38;100430.13;5011167;28;1428;-44
2021/04/03 02:08:40;;;;;;;;;;;;;;;17.04;62.74;100426.03;5008204;28;1610;-48
2021/04/03 02:11:07;;;;;;;;;;;;;;;17.06;63.02;100429.41;5024202;23;3542;-60
2021/04/03 02:13:33;;;;;;;;;;;;;;;17.04;63.83;100439.38;5008738;28;1235;-60
2021/04/03 02:15:59;;;;;;;;;;;;;;;17.03;63.67;100432.34;5006503;28;1352;-60
2021/04/03 02:18:26;;;;;;;;;;;;;;;17.04;63.60;100423.34;5009158;28;1906;-60
2021/04/03 02:20:52;;;;;;;;;;;;;;;17.02;63.21;100427.97;5009792;28;1210;-61
2021/04/03 02:23:17;;;;;;;;;;;;;;;17.03;63.10;100410.13;5011380;28;1364;-60
2021/04/03 02:25:43;;;;;;;;;;;;;;;17.04;63.43;100420.69;5014047;28;1416;-60
2021/04/03 02:28:08;;;;;;;;;;;;;;;17.02;63.19;100414.63;5014818;28;1214;-61
2021/04/03 02:30:34;;;;;;;;;;;;;;;17.02;63.40;100408.44;5011992;28;1819;-57
2021/04/03 02:32:59;;;;;;;;;;;;;;;17.04;62.49;100409.16;5014615;28;1483;-60
2021/04/03 02:35:25;;;;;;;;;;;;;;;17.02;62.43;100405.78;5012719;28;1463;-60
2021/04/03 02:37:56;;;;;;;;;;;;;;;17.02;62.31;100409.28;5014901;28;1890;-57
2021/04/03 02:40:23;;;;;;;;;;;;;;;17.05;62.39;100427.72;5012149;28;1249;-57
2021/04/03 02:42:51;;;;;;;;;;;;;;;17.03;62.92;100408.31;5012570;28;1617;-57
2021/04/03 02:45:18;;;;;;;;;;;;;;;17.02;63.25;100411.94;5011902;28;1716;-57
2021/04/03 02:47:47;;;;;;;;;;;;;;;17.05;63.36;100433.06;5010390;28;1473;-60
2021/04/03 02:50:14;;;;;;;;;;;;;;;16.99;62.23;100414.91;5009182;28;1407;-57
2021/04/03 02:52:40;;;;;;;;;;;;;;;17.01;63.16;100428.97;5016078;28;1360;-60
2021/04/03 02:55:06;;;;;;;;;;;;;;;16.99;62.60;100440.75;5012338;28;1478;-57
2021/04/03 02:57:32;;;;;;;;;;;;;;;16.99;62.10;100422.91;5013018;28;1951;-62
2021/04/03 02:59:58;;;;;;;;;;;;;;;16.99;62.01;100420.25;5010142;28;1340;-58
2021/04/03 03:02:26;;;;;;;;;;;;;;;17.01;63.22;100433.44;5008845;28;1457;-61
2021/04/03 03:04:52;;;;;;;;;;;;;;;16.97;62.75;100416.84;5006420;28;1289;-60
2021/04/03 03:07:20;;;;;;;;;;;;;;;16.98;62.17;100421.22;5003476;28;1269;-60
2021/04/03 03:09:48;;;;;;;;;;;;;;;17.00;63.35;100426.44;5010195;28;1736;-57
2021/04/03 03:12:16;;;;;;;;;;;;;;;16.83;62.39;100428.72;5000491;28;1428;-60
2021/04/03 03:14:41;;;;;;;;;;;;;;;17.00;63.35;100421.91;5005830;28;1604;-57
2021/04/03 03:17:08;;;;;;;;;;;;;;;17.00;63.37;100432.59;5005361;28;1593;-57
2021/04/03 03:19:34;;;;;;;;;;;;;;;17.00;63.21;100427.25;5005379;28;1903;-61
2021/04/03 03:22:00;;;;;;;;;;;;;;;17.00;62.67;100432.59;5008326;28;1420;-57
2021/04/03 03:24:25;;;;;;;;;;;;;;;16.97;63.13;100427.53;5005775;28;1728;-57
2021/04/03 03:26:51;;;;;;;;;;;;;;;16.96;62.58;100425.00;5007501;28;1396;-60
2021/04/03 03:29:17;;;;;;;;;;;;;;;16.97;61.91;100416.84;5009007;28;1431;-60
2021/04/03 03:31:42;;;;;;;;;;;;;;;16.98;62.84;100444.41;5002083;28;1415;-57
2021/04/03 03:34:09;;;;;;;;;;;;;;;16.96;61.87;100414.31;5007620;28;1340;-61
2021/04/03 03:36:36;;;;;;;;;;;;;;;16.98;62.16;100421.22;5011306;28;1518;-60
2021/04/03 03:39:02;;;;;;;;;;;;;;;16.96;63.32;100433.84;5007846;28;1891;-57
2021/04/03 03:41:28;;;;;;;;;;;;;;;16.94;62.97;100417.09;5005798;28;1361;-60
2021/04/03 03:43:53;;;;;;;;;;;;;;;16.94;63.25;100421.59;5008550;28;1550;-57
2021/04/03 03:46:19;;;;;;;;;;;;;;;16.93;61.83;100418.09;5001642;28;1229;-61
2021/04/03 03:48:44;;;;;;;;;;;;;;;16.93;62.57;100412.75;5004292;28;1241;-60
2021/04/03 03:51:10;;;;;;;;;;;;;;;16.93;62.21;100415.44;5009759;28;1147;-60
2021/04/03 03:53:35;;;;;;;;;;;;;;;16.97;63.06;100416.84;5003873;28;1566;-57
2021/04/03 03:56:01;;;;;;;;;;;;;;;16.94;62.11;100422.44;5010554;28;1339;-57
2021/04/03 03:58:26;;;;;;;;;;;;;;;16.93;62.20;100417.22;5011317;28;1889;-61
2021/04/03 04:00:52;;;;;;;;;;;;;;;16.95;62.16;100426.81;5009660;28;1553;-57
2021/04/03 04:03:17;;;;;;;;;;;;;;;16.95;62.91;100431.28;5007952;28;1493;-60
2021/04/03 04:05:42;;;;;;;;;;;;;;;16.96;62.12;100444.53;5003743;28;1744;-58
2021/04/03 04:08:08;;;;;;;;;;;;;;;16.93;61.94;100439.47;5010901;28;1433;-57
2021/04/03 04:10:34;;;;;;;;;;;;;;;16.94;61.80;100441.16;5004467;28;1589;-57
2021/04/03 04:13:00;;;;;;;;;;;;;;;16.96;62.91;100443.69;5004014;28;800;-60
2021/04/03 04:15:26;;;;;;;;;;;;;;;16.94;63.17;100449.16;5009537;28;1505;-57
2021/04/03 04:17:51;;;;;;;;;;;;;;;16.94;63.03;100459.00;5011245;28;1978;-57
2021/04/03 04:20:16;;;;;;;;;;;;;;;16.98;62.79;100453.25;5011450;28;1540;-58
2021/04/03 04:22:42;;;;;;;;;;;;;;;16.98;62.33;100457.75;5014262;28;1162;-60
2021/04/03 04:25:08;;;;;;;;;;;;;;;16.98;62.89;100455.94;5006257;28;1196;-59
2021/04/03 04:27:33;;;;;;;;;;;;;;;16.99;61.74;100462.13;4999935;28;1673;-57
2021/04/03 04:30:08;;;;;;;;;;;;;;;16.96;62.70;100465.91;5004879;28;1466;-57
2021/04/03 04:32:41;;;;;;;;;;;;;;;16.94;62.86;100465.19;5009488;28;1334;-57
2021/04/03 04:35:07;;;;;;;;;;;;;;;16.93;62.23;100460.84;5009867;28;1460;-57
2021/04/03 04:37:33;;;;;;;;;;;;;;;16.96;61.65;100473.91;5014558;28;1592;-57
2021/04/03 04:39:59;;;;;;;;;;;;;;;16.95;62.23;100466.91;5010292;28;1591;-60
2021/04/03 04:42:24;;;;;;;;;;;;;;;16.94;62.54;100467.84;5003052;28;1438;-61
2021/04/03 04:44:50;;;;;;;;;;;;;;;16.93;62.81;100466.19;5011032;28;1358;-57
2021/04/03 04:47:15;;;;;;;;;;;;;;;16.93;62.84;100462.63;5007622;28;1406;-57
2021/04/03 04:49:41;;;;;;;;;;;;;;;16.95;62.87;100461.56;5009640;28;1269;-60
2021/04/03 04:52:06;;;;;;;;;;;;;;;16.96;62.75;100471.25;5013700;28;1400;-57
2021/04/03 04:54:32;;;;;;;;;;;;;;;16.93;62.13;100460.84;5019845;28;1561;-57
2021/04/03 04:56:57;;;;;;;;;;;;;;;16.98;61.45;100477.31;5005174;28;1339;-57
2021/04/03 04:59:22;;;;;;;;;;;;;;;16.96;62.50;100465.91;5009859;28;1886;-60
2021/04/03 05:01:48;;;;;;;;;;;;;;;16.97;61.68;100464.06;5005173;28;1514;-57
2021/04/03 05:04:14;;;;;;;;;;;;;;;16.98;61.96;100463.94;5006811;28;1441;-57
2021/04/03 05:06:39;;;;;;;;;;;;;;;16.97;61.98;100459.59;5005286;28;765;-57
2021/04/03 05:09:04;;;;;;;;;;;;;;;16.97;61.39;100466.75;5007865;28;1751;-60
2021/04/03 05:11:30;;;;;;;;;;;;;;;16.96;62.53;100465.91;5009575;28;1565;-57
2021/04/03 05:13:55;;;;;;;;;;;;;;;16.97;62.77;100467.59;5007744;28;1676;-60
2021/04/03 05:16:21;;;;;;;;;;;;;;;17.00;62.67;100477.19;5002575;28;1355;-60
2021/04/03 05:18:46;;;;;;;;;;;;;;;16.98;61.83;100463.09;5005641;28;1955;-60
2021/04/03 05:21:11;;;;;;;;;;;;;;;17.00;62.77;100464.66;5004289;28;814;-60
2021/04/03 05:23:37;;;;;;;;;;;;;;;17.01;62.33;100482.41;5007939;28;1446;-57
2021/04/03 05:26:03;;;;;;;;;;;;;;;17.00;61.70;100467.34;5006282;28;1331;-57
2021/04/03 05:28:28;;;;;;;;;;;;;;;17.05;62.51;100464.25;5006715;28;1419;-60
2021/04/03 05:30:53;;;;;;;;;;;;;;;17.05;61.71;100449.09;5007461;28;1384;-61
2021/04/03 05:33:19;;;;;;;;;;;;;;;17.04;61.46;100463.41;5009259;28;1345;-60
2021/04/03 05:35:44;;;;;;;;;;;;;;;17.05;62.10;100462.47;5003831;28;1388;-60
2021/04/03 05:38:10;;;;;;;;;;;;;;;17.17;60.72;100449.00;5014180;28;1947;-60
2021/04/03 05:40:35;;;;;;;;;;;;;;;17.22;60.96;100465.50;5007042;28;1351;-57
2021/04/03 05:43:04;;;;;;;;;;;;;;;17.24;60.67;100460.88;5005998;28;1218;-57
2021/04/03 05:45:30;;;;;;;;;;;;;;;17.34;60.76;100461.78;5008711;28;1539;-57
2021/04/03 05:47:57;;;;;;;;;;;;;;;17.45;61.40;100460.88;5008671;28;1340;-57
2021/04/03 05:50:23;;;;;;;;;;;;;;;17.38;61.45;100468.56;5008816;28;1204;-61
2021/04/03 05:52:49;;;;;;;;;;;;;;;17.37;60.88;100474.03;5000728;28;1204;-57
2021/04/03 05:55:14;;;;;;;;;;;;;;;17.46;61.58;100478.59;5009239;28;1184;-60
2021/04/03 05:57:39;;;;;;;;;;;;;;;17.57;60.77;100477.69;5000986;28;1957;-57
2021/04/03 06:00:06;;;;;;;;;;;;;;;17.57;60.00;100472.34;5006309;28;1395;-57
2021/04/03 06:02:37;;;;;;;;;;;;;;;17.50;60.91;100480.84;5008031;28;1428;-57
2021/04/03 06:05:06;;;;;;;;;;;;;;;17.44;61.65;100477.88;5010608;28;1238;-57
2021/04/03 06:07:32;;;;;;;;;;;;;;;17.38;60.98;100481.91;5007359;28;1238;-60
2021/04/03 06:09:58;;;;;;;;;;;;;;;17.34;62.03;100472.47;5009716;28;1485;-58
2021/04/03 06:12:42;;;;;;;;;;;;;;;17.30;60.74;100476.38;5010525;28;1400;-57
2021/04/03 06:15:10;;;;;;;;;;;;;;;17.35;61.65;100490.22;5009722;28;1228;-60
2021/04/03 06:17:36;;;;;;;;;;;;;;;17.32;61.43;100495.81;5005553;28;1262;-61
2021/04/03 06:20:02;;;;;;;;;;;;;;;17.28;62.14;100489.03;5010667;28;1964;-57
2021/04/03 06:22:39;;;;;;;;;;;;;;;17.24;61.43;100493.78;5011872;28;1693;-57
2021/04/03 06:25:04;;;;;;;;;;;;;;;17.21;61.88;100482.50;5009947;28;1533;-61
2021/04/03 06:27:30;;;;;;;;;;;;;;;17.18;61.28;100491.63;5009242;28;1354;-57
2021/04/03 06:29:57;;;;;;;;;;;;;;;17.20;62.01;100502.22;5008663;28;1342;-60
2021/04/03 06:32:24;;;;;;;;;;;;;;;17.17;61.52;100497.97;5009581;28;1430;-60
2021/04/03 06:34:50;;;;;;;;;;;;;;;17.18;62.46;100493.47;5011125;28;1363;-57
2021/04/03 06:37:23;;;;;;;;;;;;;;;17.16;61.70;100500.78;5010956;28;1124;-57
2021/04/03 06:39:59;;;;;;;;;;;;;;;17.13;62.19;100493.88;5007796;28;1949;-57
2021/04/03 06:42:41;;;;;;;;;;;;;;;17.12;61.64;100483.31;5007852;28;1411;-57
2021/04/03 06:45:28;;;;;;;;;;;;;;;17.07;61.96;100481.88;5008871;28;1361;-57
2021/04/03 06:47:55;;;;;;;;;;;;;;;17.08;61.55;100475.53;5009345;28;1529;-60
2021/04/03 06:50:21;;;;;;;;;;;;;;;17.08;61.71;100488.91;5010557;28;1466;-60
2021/04/03 06:52:47;;;;;;;;;;;;;;;17.13;62.85;100490.34;5010600;28;1612;-57
2021/04/03 06:55:13;;;;;;;;;;;;;;;17.10;61.56;100497.63;5010883;28;1358;-57
2021/04/03 06:57:41;;;;;;;;;;;;;;;17.10;62.68;100505.66;5009578;28;1391;-57
2021/04/03 07:00:06;;;;;;;;;;;;;;;17.14;62.49;100497.38;5005268;28;1374;-61
2021/04/03 07:02:34;;;;;;;;;;;;;;;17.10;61.73;100486.94;5009955;28;1440;-60
2021/04/03 07:05:00;;;;;;;;;;;;;;;17.10;61.55;100481.59;5009293;28;1390;-60
2021/04/03 07:07:28;;;;;;;;;;;;;;;17.13;62.65;100490.34;5011952;28;1570;-60
2021/04/03 07:09:55;;;;;;;;;;;;;;;17.13;62.79;100491.19;5012102;28;1273;-57
2021/04/03 07:12:21;;;;;;;;;;;;;;;17.11;62.88;100482.47;5012953;28;1412;-59
2021/04/03 07:14:46;;;;;;;;;;;;;;;17.12;61.83;100480.63;5013327;28;1502;-60
2021/04/03 07:17:12;;;;;;;;;;;;;;;17.11;62.76;100477.13;5013130;28;1516;-58
2021/04/03 07:19:39;;;;;;;;;;;;;;;17.13;61.83;100479.66;5013713;28;1965;-60
2021/04/03 07:22:04;;;;;;;;;;;;;;;17.12;62.00;100477.97;5015540;28;1211;-60
2021/04/03 07:24:30;;;;;;;;;;;;;;;17.11;62.66;100482.47;5011798;28;1562;-60
2021/04/03 07:26:56;;;;;;;;;;;;;;;17.15;61.43;100456.31;5010578;28;1373;-60
2021/04/03 07:29:40;;;;;;;;;;;;;;;17.20;61.34;100460.28;5009287;28;1316;-61
2021/04/03 07:32:06;;;;;;;;;;;;;;;17.25;62.25;100478.63;5010987;28;1465;-60
2021/04/03 07:34:40;;;;;;;;;;;;;;;17.28;61.21;100483.69;5010446;28;1667;-60
2021/04/03 07:37:09;;;;;;;;;;;;;;;17.31;61.69;100488.78;5010838;28;1089;-58
2021/04/03 07:39:36;;;;;;;;;;;;;;;17.34;62.01;100480.50;5010501;28;1894;-58
2021/04/03 07:42:01;;;;;;;;;;;;;;;17.28;61.55;100473.00;5012546;28;1542;-60
2021/04/03 07:44:32;;;;;;;;;;;;;;;17.24;61.74;100466.22;5011191;28;1410;-58
2021/04/03 07:46:57;;;;;;;;;;;;;;;17.24;61.63;100472.41;5005814;28;1419;-58
2021/04/03 07:49:33;;;;;;;;;;;;;;;17.24;62.00;100474.25;5011747;28;1223;-59
2021/04/03 07:51:58;;;;;;;;;;;;;;;17.28;62.31;100470.34;5014167;28;1268;-58
2021/04/03 07:54:27;;;;;;;;;;;;;;;17.27;61.93;100466.81;5009785;28;1395;-58
2021/04/03 07:56:57;;;;;;;;;;;;;;;17.27;62.21;100466.81;5010892;28;1459;-59
2021/04/03 07:59:41;;;;;;;;;;;;;;;17.30;61.95;100469.22;5008105;28;1955;-59
2021/04/03 08:02:08;;;;;;;;;;;;;;;17.30;61.35;100450.50;5001761;28;1531;-58
2021/04/03 08:04:34;;;;;;;;;;;;;;;17.35;62.42;100467.97;5002679;28;1293;-58
2021/04/03 08:07:01;;;;;;;;;;;;;;;17.36;61.56;100469.69;4998870;28;1403;-59
2021/04/03 08:09:30;;;;;;;;;;;;;;;17.39;61.68;100454.22;5005886;28;1406;-59
2021/04/03 08:11:56;;;;;;;;;;;;;;;17.42;60.95;100450.44;5008204;28;1616;-59
2021/04/03 08:14:26;;;;;;;;;;;;;;;17.53;62.16;100449.50;5008675;28;1598;-59
2021/04/03 08:16:52;;;;;;;;;;;;;;;17.55;60.84;100459.09;5010310;28;1224;-56
2021/04/03 08:19:22;;;;;;;;;;;;;;;17.60;60.83;100462.19;5009193;28;1977;-61
2021/04/03 08:21:48;;;;;;;;;;;;;;;17.67;61.70;100449.16;5010826;28;1646;-60
2021/04/03 08:24:14;;;;;;;;;;;;;;;17.64;61.78;100442.22;5012275;28;1258;-59
2021/04/03 08:26:40;;;;;;;;;;;;;;;17.65;61.06;100449.28;5005760;28;1588;-59
2021/04/03 08:29:06;;;;;;;;;;;;;;;17.63;62.02;100445.06;5010033;28;1501;-60
2021/04/03 08:31:33;;;;;;;;;;;;;;;17.60;61.93;100466.69;5006197;28;1295;-60
2021/04/03 08:34:00;;;;;;;;;;;;;;;17.54;61.29;100451.19;5010412;28;1457;-60
2021/04/03 08:36:26;;;;;;;;;;;;;;;17.57;61.60;100434.91;5006837;28;1137;-59
2021/04/03 08:38:52;;;;;;;;;;;;;;;17.57;62.04;100434.91;5005630;28;1890;-59
2021/04/03 08:41:22;;;;;;;;;;;;;;;17.61;61.43;100455.03;5008673;28;1562;-60
2021/04/03 08:43:48;;;;;;;;;;;;;;;17.62;62.08;100446.84;5009111;28;1360;-59
2021/04/03 08:46:14;;;;;;;;;;;;;;;17.62;61.93;100443.34;5008710;28;1375;-58
2021/04/03 08:48:44;;;;;;;;;;;;;;;17.60;62.49;100439.97;5005014;28;1422;-59
2021/04/03 08:51:10;;;;;;;;;;;;;;;17.59;61.84;100438.28;5003993;28;1190;-60
2021/04/03 08:53:40;;;;;;;;;;;;;;;17.59;61.77;100433.78;5007776;28;1431;-59
2021/04/03 08:56:05;;;;;;;;;;;;;;;17.60;63.02;100440.81;5010743;28;1418;-59
2021/04/03 08:58:31;;;;;;;;;;;;;;;17.57;62.69;100435.75;5008926;28;1936;-59
2021/04/03 09:00:57;;;;;;;;;;;;;;;17.61;61.94;100447.03;5003669;28;1468;-57
2021/04/03 09:03:22;;;;;;;;;;;;;;;17.61;62.43;100421.13;5008886;28;1185;-60
2021/04/03 09:05:48;;;;;;;;;;;;;;;17.62;61.58;100422.78;5008861;28;1475;-57
2021/04/03 09:08:24;;;;;;;;;;;;;;;17.63;61.96;100423.66;5008279;28;1352;-59
2021/04/03 09:10:53;;;;;;;;;;;;;;;17.48;61.49;100410.63;4999609;28;1450;-58
2021/04/03 09:13:19;;;;;;;;;;;;;;;17.66;62.03;100424.22;4999028;28;1262;-58
2021/04/03 09:15:47;;;;;;;;;;;;;;;17.64;62.39;100436.03;4996186;28;1363;-60
2021/04/03 09:18:12;;;;;;;;;;;;;;;17.62;61.40;100419.28;5003152;28;1973;-58
2021/04/03 09:20:47;;;;;;;;;;;;;;;17.58;61.34;100417.88;5004941;28;1285;-59
2021/04/03 09:23:13;;;;;;;;;;;;;;;17.66;61.09;100424.22;5008806;28;1327;-59
2021/04/03 09:25:39;;;;;;;;;;;;;;;17.52;59.00;100437.13;5005283;28;1344;-59
2021/04/03 09:28:06;;;;;;;;;;;;;;;17.43;59.06;100406.69;5011804;28;1070;-59
2021/04/03 09:30:33;;;;;;;;;;;;;;;17.40;59.08;100413.13;5008934;28;1681;-59
2021/04/03 09:33:11;;;;;;;;;;;;;;;17.47;57.84;100416.16;5008305;28;1348;-59
2021/04/03 09:35:36;;;;;;;;;;;;;;;17.48;58.37;100420.50;5002528;28;1785;-59
2021/04/03 09:38:03;;;;;;;;;;;;;;;17.54;57.49;100414.59;5010484;28;1937;-59
2021/04/03 09:40:57;;;;;;;;;;;;;;;17.55;58.56;100407.41;5009907;28;1386;-59
2021/04/03 09:43:38;;;;;;;;;;;;;;;17.51;58.19;100398.84;4993675;28;1468;-59
2021/04/03 09:46:03;;;;;;;;;;;;;;;17.55;57.60;100418.13;4998617;28;1362;-59
2021/04/03 09:48:28;;;;;;;;;;;;;;;17.56;57.53;100411.81;5006153;28;1150;-59
2021/04/03 09:50:54;;;;;;;;;;;;;;;17.57;58.37;100411.69;5007906;28;1183;-59
2021/04/03 09:53:19;;;;;;;;;;;;;;;17.56;60.33;100406.47;5005076;28;1355;-59
2021/04/03 09:55:44;;;;;;;;;;;;;;;17.58;59.76;100410.69;5010087;28;1389;-59
2021/04/03 09:58:09;;;;;;;;;;;;;;;17.58;60.89;100407.16;5009522;28;1914;-59
2021/04/03 10:00:35;;;;;;;;;;;;;;;17.59;60.79;100406.19;5007135;28;1700;-59
2021/04/03 10:03:00;;;;;;;;;;;;;;;17.60;60.82;100398.03;5005846;28;1497;-58
2021/04/03 10:05:25;;;;;;;;;;;;;;;17.57;59.07;100397.47;5010101;28;1528;-58
2021/04/03 10:07:51;;;;;;;;;;;;;;;17.56;60.26;100390.41;5010616;28;1222;-59
2021/04/03 10:10:16;;;;;;;;;;;;;;;17.59;60.64;100395.50;5007647;28;1048;-58
2021/04/03 10:12:41;;;;;;;;;;;;;;;17.57;60.33;100381.44;5008582;28;1627;-59
2021/04/03 10:15:07;;;;;;;;;;;;;;;17.60;60.02;100375.78;5006752;28;1537;-59
2021/04/03 10:17:32;;;;;;;;;;;;;;;17.62;58.99;100374.66;5001750;28;1554;-61
2021/04/03 10:19:58;;;;;;;;;;;;;;;17.61;60.86;100375.66;5007577;28;1917;-59
2021/04/03 10:22:23;;;;;;;;;;;;;;;17.61;60.53;100388.19;5008751;28;1498;-56
2021/04/03 10:24:48;;;;;;;;;;;;;;;17.64;60.05;100382.56;4999549;28;1192;-58
2021/04/03 10:27:14;;;;;;;;;;;;;;;17.61;60.45;100377.50;5005664;28;1452;-57
2021/04/03 10:29:39;;;;;;;;;;;;;;;17.64;60.50;100385.22;5000989;28;1481;-58
2021/04/03 10:32:04;;;;;;;;;;;;;;;17.65;60.91;100385.09;5007200;28;1481;-58
2021/04/03 10:34:30;;;;;;;;;;;;;;;17.60;59.96;100381.13;5003583;28;1320;-58
2021/04/03 10:36:55;;;;;;;;;;;;;;;17.60;59.91;100398.03;5002122;28;1332;-59
2021/04/03 10:39:20;;;;;;;;;;;;;;;17.59;59.67;100395.50;5002881;28;1894;-58
2021/04/03 10:41:46;;;;;;;;;;;;;;;17.66;58.04;100393.97;5005185;28;1419;-59
2021/04/03 10:44:11;;;;;;;;;;;;;;;17.64;57.62;100386.06;5009674;28;1458;-59
2021/04/03 10:46:36;;;;;;;;;;;;;;;17.44;56.02;100387.00;5009530;28;1461;-59
2021/04/03 10:49:02;;;;;;;;;;;;;;;17.38;56.70;100376.84;5009801;28;1315;-59
2021/04/03 10:51:27;;;;;;;;;;;;;;;17.21;54.89;100383.63;5005107;28;1148;-58
2021/04/03 10:53:52;;;;;;;;;;;;;;;17.10;55.55;100377.41;5013144;28;1232;-59
2021/04/03 10:56:18;;;;;;;;;;;;;;;17.16;54.87;100365.34;5012072;28;1351;-59
2021/04/03 10:58:46;;;;;;;;;;;;;;;17.13;53.38;100365.63;5009994;28;1945;-59
2021/04/03 11:01:12;;;;;;;;;;;;;;;17.09;54.70;100365.03;5009821;28;1420;-59
2021/04/03 11:03:38;;;;;;;;;;;;;;;17.15;53.57;100363.66;5008732;28;1477;-59
2021/04/03 11:06:03;;;;;;;;;;;;;;;17.05;54.76;100358.28;5010671;28;1105;-59
2021/04/03 11:08:29;;;;;;;;;;;;;;;17.05;54.21;100368.97;5007532;28;1384;-59
2021/04/03 11:10:55;;;;;;;;;;;;;;;17.09;54.85;100359.69;5012422;28;1475;-59
2021/04/03 11:13:20;;;;;;;;;;;;;;;17.22;56.12;100361.28;5010192;28;1468;-59
2021/04/03 11:15:46;;;;;;;;;;;;;;;17.14;54.71;100363.78;5023951;28;1347;-59
2021/04/03 11:18:11;;;;;;;;;;;;;;;17.18;54.22;100365.22;5009093;28;1956;-59
2021/04/03 11:20:38;;;;;;;;;;;;;;;16.89;53.55;100372.09;5013166;28;1352;-59
2021/04/03 11:23:03;;;;;;;;;;;;;;;16.79;53.85;100360.50;5014004;28;1430;-59
2021/04/03 11:25:28;;;;;;;;;;;;;;;16.67;53.25;100351.69;5012699;28;1414;-59
2021/04/03 11:27:54;;;;;;;;;;;;;;;16.54;53.50;100356.38;5012617;28;1409;-59
2021/04/03 11:30:19;;;;;;;;;;;;;;;16.50;54.54;100338.91;5012207;28;1628;-59
2021/04/03 11:32:49;;;;;;;;;;;;;;;16.42;54.50;100336.91;5009369;28;1407;-59
2021/04/03 11:35:15;;;;;;;;;;;;;;;16.58;54.40;100336.44;5008081;28;1403;-59
2021/04/03 11:37:41;;;;;;;;;;;;;;;16.56;53.56;100321.53;5014535;28;1272;-59
2021/04/03 11:40:07;;;;;;;;;;;;;;;16.42;54.13;100312.88;5011283;28;1969;-59
2021/04/03 11:42:32;;;;;;;;;;;;;;;16.63;55.17;100333.38;5011536;28;1467;-59
2021/04/03 11:44:58;;;;;;;;;;;;;;;16.91;54.56;100331.91;5011025;28;1443;-59
2021/04/03 11:47:23;;;;;;;;;;;;;;;17.08;54.29;100323.25;5009603;28;1398;-61
2021/04/03 11:49:50;;;;;;;;;;;;;;;17.20;54.12;100329.34;5007471;28;1358;-60
2021/04/03 11:52:15;;;;;;;;;;;;;;;17.27;55.59;100302.97;5014316;28;1247;-60
2021/04/03 11:54:41;;;;;;;;;;;;;;;17.28;55.44;100304.66;5011122;28;1410;-60
2021/04/03 11:57:07;;;;;;;;;;;;;;;17.34;55.00;100303.25;5012776;28;1415;-59
2021/04/03 11:59:32;;;;;;;;;;;;;;;17.34;54.59;100292.56;5010292;28;1894;-60
2021/04/03 12:01:58;;;;;;;;;;;;;;;17.33;54.87;100290.88;5010783;28;1438;-59
2021/04/03 12:04:24;;;;;;;;;;;;;;;17.42;55.58;100287.38;5011107;28;1466;-58
2021/04/03 12:06:49;;;;;;;;;;;;;;;17.39;56.24;100275.16;5011192;28;1100;-66
2021/04/03 12:09:14;;;;;;;;;;;;;;;17.37;55.42;100276.25;5018847;28;1412;-74
2021/04/03 12:11:40;;;;;;;;;;;;;;;17.38;55.92;100280.63;5002931;28;1486;-67
2021/04/03 12:14:05;;;;;;;;;;;;;;;17.39;55.29;100283.16;5011092;28;1423;-56
2021/04/03 12:16:30;;;;;;;;;;;;;;;17.38;54.93;100281.47;5010538;28;1390;-56
2021/04/03 12:18:56;;;;;;;;;;;;;;;17.47;55.04;100286.00;5008819;28;1981;-56
2021/04/03 12:21:21;;;;;;;;;;;;;;;17.61;54.97;100270.56;5010204;28;1389;-55
2021/04/03 12:23:46;;;;;;;;;;;;;;;17.67;55.24;100280.69;5011733;28;1406;-55
2021/04/03 12:26:12;;;;;;;;;;;;;;;17.74;55.58;100263.09;5009570;28;1461;-56
2021/04/03 12:28:37;;;;;;;;;;;;;;;17.77;54.77;100260.16;5009945;28;1235;-58
2021/04/03 12:31:03;;;;;;;;;;;;;;;17.68;54.87;100250.28;5012123;28;1433;-58
2021/04/03 12:33:28;;;;;;;;;;;;;;;17.60;54.60;100250.97;5010494;28;1319;-53
2021/04/03 12:35:53;;;;;;;;;;;;;;;17.61;54.21;100267.88;5009104;28;1197;-53
2021/04/03 12:38:19;;;;;;;;;;;;;;;17.61;55.69;100255.34;5011968;28;1945;-53
2021/04/03 12:40:44;;;;;;;;;;;;;;;17.57;56.08;100242.41;5011949;28;1438;-53
2021/04/03 12:43:09;;;;;;;;;;;;;;;17.54;56.26;100248.00;5010689;28;1412;-53
2021/04/03 12:45:35;;;;;;;;;;;;;;;17.54;55.09;100248.84;5009763;28;1254;-57